createdAt,value
2018-03-08T00:00:04.042Z,59.07
2018-03-08T00:02:32.836Z,61.63
2018-03-08T00:05:01.472Z,58.77
2018-03-08T00:07:30.108Z,57.70
2018-03-08T00:09:58.583Z,59.60
2018-03-08T00:12:27.109Z,60.17
2018-03-08T00:14:55.700Z,59.63
2018-03-08T00:17:24.494Z,63.13
2018-03-08T00:19:52.984Z,59.80
2018-03-08T00:22:21.633Z,62.87
2018-03-08T00:24:50.073Z,61.30
2018-03-08T00:27:18.663Z,58.53
2018-03-08T00:29:47.580Z,61.13
2018-03-08T00:32:16.075Z,61.30
2018-03-08T00:34:44.645Z,59.33
2018-03-08T00:37:13.417Z,57.97
2018-03-08T00:39:42.069Z,63.53
2018-03-08T00:42:10.595Z,57.70
2018-03-08T00:44:39.166Z,61.07
2018-03-08T00:47:07.953Z,57.43
2018-03-08T00:49:36.624Z,60.43
2018-03-08T00:52:05.556Z,60.30
2018-03-08T00:54:34.065Z,58.90
2018-03-08T00:57:03.333Z,61.07
2018-03-08T00:59:33.254Z,60.30
2018-03-08T01:02:01.727Z,57.83
2018-03-08T01:04:30.199Z,59.77
2018-03-08T01:06:58.801Z,60.83
2018-03-08T01:09:27.281Z,62.20
2018-03-08T01:11:55.771Z,61.20
2018-03-08T01:14:33.087Z,57.30
2018-03-08T01:17:01.831Z,60.03
2018-03-08T01:19:30.456Z,55.80
2018-03-08T01:22:02.045Z,56.40
2018-03-08T01:24:30.692Z,60.70
2018-03-08T01:26:59.444Z,57.53
2018-03-08T01:29:28.899Z,60.40
2018-03-08T01:31:57.561Z,55.83
2018-03-08T01:34:25.978Z,56.40
2018-03-08T01:36:54.425Z,57.77
2018-03-08T01:39:22.957Z,57.33
2018-03-08T01:41:51.511Z,58.90
2018-03-08T01:44:19.985Z,59.40
2018-03-08T01:46:48.475Z,62.60
2018-03-08T01:49:16.862Z,62.13
2018-03-08T01:51:55.303Z,59.43
2018-03-08T01:54:23.998Z,61.37
2018-03-08T01:56:52.542Z,61.97
2018-03-08T01:59:21.993Z,57.67
2018-03-08T02:01:50.445Z,61.20
2018-03-08T02:04:19.049Z,60.87
2018-03-08T02:06:47.785Z,60.20
2018-03-08T02:09:16.372Z,58.87
2018-03-08T02:11:44.925Z,62.77
2018-03-08T02:14:13.358Z,60.70
2018-03-08T02:16:41.947Z,62.77
2018-03-08T02:19:10.562Z,56.90
2018-03-08T02:21:39.289Z,59.47
2018-03-08T02:24:07.688Z,62.60
2018-03-08T02:26:36.155Z,58.60
2018-03-08T02:29:04.599Z,60.20
2018-03-08T02:31:33.174Z,56.90
2018-03-08T02:34:01.635Z,59.17
2018-03-08T02:36:30.457Z,61.10
2018-03-08T02:38:59.281Z,61.33
2018-03-08T02:41:27.774Z,62.13
2018-03-08T02:43:56.365Z,63.93
2018-03-08T02:46:24.893Z,63.47
2018-03-08T02:48:53.406Z,65.43
2018-03-08T02:51:22.277Z,60.00
2018-03-08T02:53:50.952Z,62.10
2018-03-08T02:56:19.465Z,63.50
2018-03-08T02:58:48.170Z,63.17
2018-03-08T03:01:16.735Z,65.43
2018-03-08T03:03:45.238Z,64.83
2018-03-08T03:06:14.434Z,64.80
2018-03-08T03:08:43.157Z,66.50
2018-03-08T03:11:11.753Z,65.17
2018-03-08T03:13:40.229Z,65.10
2018-03-08T03:16:08.773Z,63.20
2018-03-08T03:18:37.643Z,64.17
2018-03-08T03:21:06.189Z,61.07
2018-03-08T03:23:35.009Z,64.77
2018-03-08T03:26:03.646Z,62.93
2018-03-08T03:28:32.145Z,66.43
2018-03-08T03:31:00.833Z,65.77
2018-03-08T03:33:29.500Z,65.30
2018-03-08T03:35:58.075Z,63.23
2018-03-08T03:38:26.584Z,64.20
2018-03-08T03:40:55.007Z,66.97
2018-03-08T03:43:23.853Z,65.63
2018-03-08T03:45:52.303Z,63.57
2018-03-08T03:48:20.790Z,67.47
2018-03-08T03:50:49.328Z,62.80
2018-03-08T03:53:18.096Z,64.63
2018-03-08T03:55:46.524Z,62.57
2018-03-08T03:58:15.337Z,64.33
2018-03-08T04:00:43.796Z,63.37
2018-03-08T04:03:12.238Z,66.53
2018-03-08T04:05:41.288Z,66.17
2018-03-08T04:08:09.746Z,62.83
2018-03-08T04:10:38.397Z,62.10
2018-03-08T04:13:07.671Z,60.30
2018-03-08T04:15:36.105Z,59.43
2018-03-08T04:18:04.677Z,59.47
2018-03-08T04:20:33.325Z,62.70
2018-03-08T04:23:01.890Z,57.90
2018-03-08T04:25:30.588Z,61.60
2018-03-08T04:27:59.151Z,66.47
2018-03-08T04:30:28.276Z,61.40
2018-03-08T04:32:57.541Z,60.47
2018-03-08T04:35:26.166Z,58.40
2018-03-08T04:37:55.110Z,63.70
2018-03-08T04:40:23.694Z,62.17
2018-03-08T04:42:52.236Z,62.20
2018-03-08T04:45:20.946Z,56.90
2018-03-08T04:47:49.342Z,56.47
2018-03-08T04:50:17.990Z,56.57
2018-03-08T04:52:46.625Z,58.30
2018-03-08T04:55:15.085Z,59.20
2018-03-08T04:57:43.543Z,56.60
2018-03-08T05:03:07.611Z,60.47
2018-03-08T05:05:36.159Z,61.53
2018-03-08T05:08:04.717Z,61.23
2018-03-08T05:10:33.286Z,60.90
2018-03-08T05:13:01.731Z,60.10
2018-03-08T05:15:30.404Z,62.30
2018-03-08T05:17:58.888Z,59.57
2018-03-08T05:20:27.608Z,61.40
2018-03-08T05:22:56.084Z,57.70
2018-03-08T05:25:25.328Z,56.67
2018-03-08T05:27:54.496Z,60.70
2018-03-08T05:30:23.331Z,57.80
2018-03-08T05:32:51.807Z,55.93
2018-03-08T05:35:20.282Z,54.40
2018-03-08T05:37:48.974Z,52.63
2018-03-08T05:40:17.704Z,54.97
2018-03-08T05:42:46.358Z,53.07
2018-03-08T05:45:14.833Z,52.97
2018-03-08T05:47:43.266Z,50.93
2018-03-08T05:50:11.792Z,52.50
2018-03-08T05:52:40.515Z,50.17
2018-03-08T05:55:09.187Z,48.20
2018-03-08T05:57:37.834Z,48.40
2018-03-08T06:00:06.323Z,48.43
2018-03-08T06:02:34.790Z,46.80
2018-03-08T06:05:03.942Z,44.80
2018-03-08T06:07:32.595Z,45.07
2018-03-08T06:10:01.424Z,43.30
2018-03-08T06:12:31.682Z,44.47
2018-03-08T06:15:00.481Z,42.37
2018-03-08T06:17:36.003Z,37.67
2018-03-08T06:20:04.659Z,38.07
2018-03-08T06:22:33.716Z,37.93
2018-03-08T06:25:02.175Z,36.87
2018-03-08T06:27:31.897Z,35.60
2018-03-08T06:30:00.578Z,37.27
2018-03-08T06:32:29.602Z,37.20
2018-03-08T06:34:58.338Z,36.17
2018-03-08T06:37:27.120Z,38.17
2018-03-08T06:39:55.661Z,36.67
2018-03-08T06:42:24.529Z,36.50
2018-03-08T06:44:53.398Z,40.23
2018-03-08T06:47:22.993Z,35.80
2018-03-08T06:49:51.693Z,36.13
2018-03-08T06:52:20.244Z,36.20
2018-03-08T06:54:48.970Z,36.23
2018-03-08T06:57:18.221Z,36.27
2018-03-08T06:59:48.272Z,36.17
2018-03-08T07:02:17.316Z,37.27
2018-03-08T07:04:46.121Z,34.80
2018-03-08T07:07:14.693Z,34.10
2018-03-08T07:09:45.089Z,34.27
2018-03-08T07:12:13.981Z,33.90
2018-03-08T07:14:43.231Z,33.07
2018-03-08T07:17:13.062Z,32.43
2018-03-08T07:19:41.741Z,31.67
2018-03-08T07:22:10.310Z,32.23
2018-03-08T07:24:38.999Z,30.43
2018-03-08T07:27:07.561Z,30.20
2018-03-08T07:29:36.226Z,28.83
2018-03-08T07:32:05.131Z,30.00
2018-03-08T07:34:37.628Z,26.97
2018-03-08T07:37:07.028Z,27.80
2018-03-08T07:39:35.920Z,24.80
2018-03-08T07:42:04.772Z,22.87
2018-03-08T07:44:34.986Z,21.10
2018-03-08T07:47:05.428Z,21.27
2018-03-08T07:49:35.031Z,20.30
2018-03-08T07:52:03.836Z,20.07
2018-03-08T07:54:37.372Z,18.50
2018-03-08T07:57:06.122Z,18.47
2018-03-08T07:59:34.752Z,18.67
2018-03-08T08:02:07.789Z,20.17
2018-03-08T08:06:51.272Z,18.60
2018-03-08T08:09:20.146Z,17.50
2018-03-08T08:11:51.396Z,19.43
2018-03-08T08:14:20.172Z,18.03
2018-03-08T08:16:49.112Z,20.10
2018-03-08T08:19:18.405Z,19.90
2018-03-08T08:21:47.067Z,19.13
2018-03-08T08:24:15.926Z,18.80
2018-03-08T08:26:44.873Z,19.67
2018-03-08T08:29:13.736Z,18.80
2018-03-08T08:31:42.649Z,20.07
2018-03-08T08:34:12.440Z,17.33
2018-03-08T08:36:44.682Z,18.37
2018-03-08T08:39:13.980Z,17.33
2018-03-08T08:41:44.068Z,17.10
2018-03-08T08:44:13.086Z,17.20
2018-03-08T08:46:42.481Z,16.97
2018-03-08T08:49:11.357Z,17.17
2018-03-08T08:51:40.673Z,18.27
2018-03-08T08:54:09.345Z,16.63
2018-03-08T08:56:38.326Z,16.93
2018-03-08T08:59:07.303Z,16.40
2018-03-08T09:01:36.208Z,16.50
2018-03-08T09:04:05.311Z,16.03
2018-03-08T09:06:34.477Z,14.60
2018-03-08T09:09:04.190Z,15.03
2018-03-08T09:11:32.793Z,17.47
2018-03-08T09:14:03.854Z,14.67
2018-03-08T09:16:32.878Z,15.23
2018-03-08T09:19:02.227Z,15.20
2018-03-08T09:21:31.710Z,15.10
2018-03-08T09:24:00.594Z,12.83
2018-03-08T09:26:29.281Z,14.90
2018-03-08T09:28:57.970Z,12.30
2018-03-08T09:31:27.886Z,13.97
2018-03-08T09:33:57.578Z,13.67
2018-03-08T09:36:27.264Z,12.60
2018-03-08T09:38:56.769Z,14.03
2018-03-08T09:41:28.317Z,13.67
2018-03-08T09:43:57.248Z,12.73
2018-03-08T09:46:25.833Z,12.87
2018-03-08T09:48:55.011Z,13.53
2018-03-08T09:51:24.581Z,13.90
2018-03-08T09:53:58.340Z,14.17
2018-03-08T09:56:29.054Z,14.20
2018-03-08T09:58:58.581Z,14.30
2018-03-08T10:01:29.925Z,14.63
2018-03-08T10:04:01.729Z,16.20
2018-03-08T10:06:31.757Z,16.50
2018-03-08T10:09:02.202Z,16.00
2018-03-08T10:11:34.217Z,16.30
2018-03-08T10:14:08.725Z,16.70
2018-03-08T10:16:39.192Z,16.30
2018-03-08T10:19:10.957Z,18.10
2018-03-08T10:21:48.908Z,17.03
2018-03-08T10:24:20.241Z,16.80
2018-03-08T10:26:51.384Z,19.03
2018-03-08T10:29:25.993Z,18.30
2018-03-08T10:31:58.513Z,19.57
2018-03-08T10:34:29.552Z,17.63
2018-03-08T10:37:01.906Z,18.27
2018-03-08T10:39:31.817Z,18.30
2018-03-08T10:42:03.988Z,20.20
2018-03-08T10:44:35.068Z,20.23
2018-03-08T10:47:06.207Z,21.20
2018-03-08T10:49:35.685Z,20.40
2018-03-08T10:52:08.537Z,21.17
2018-03-08T10:54:39.357Z,21.03
2018-03-08T10:57:11.533Z,22.30
2018-03-08T10:59:41.871Z,20.83
2018-03-08T11:02:17.226Z,21.60
2018-03-08T11:04:55.586Z,21.80
2018-03-08T11:07:27.677Z,21.83
2018-03-08T11:09:57.724Z,23.00
2018-03-08T11:12:28.355Z,22.90
2018-03-08T11:14:59.376Z,21.67
2018-03-08T11:17:32.891Z,21.67
2018-03-08T11:20:03.358Z,22.87
2018-03-08T11:22:34.693Z,22.50
2018-03-08T11:25:09.229Z,22.60
2018-03-08T11:27:44.548Z,20.77
2018-03-08T11:30:14.185Z,21.73
2018-03-08T11:32:48.208Z,23.60
2018-03-08T11:35:22.342Z,24.33
2018-03-08T11:37:56.293Z,21.60
2018-03-08T11:40:36.065Z,21.57
2018-03-08T11:43:08.808Z,20.10
2018-03-08T11:45:39.276Z,21.60
2018-03-08T11:48:11.548Z,21.03
2018-03-08T11:50:47.919Z,21.40
2018-03-08T11:53:34.576Z,22.67
2018-03-08T11:56:11.393Z,20.33
2018-03-08T11:58:53.956Z,20.53
2018-03-08T12:01:30.171Z,20.57
2018-03-08T12:04:10.166Z,18.43
2018-03-08T12:06:50.370Z,19.80
2018-03-08T12:09:22.342Z,20.90
2018-03-08T12:11:59.797Z,19.60
2018-03-08T12:14:42.116Z,18.50
2018-03-08T12:17:42.482Z,17.80
2018-03-08T12:20:51.434Z,17.57
2018-03-08T12:26:17.955Z,18.27
2018-03-08T12:28:59.458Z,18.57
2018-03-08T12:31:47.337Z,19.33
2018-03-08T12:34:37.681Z,19.17
2018-03-08T12:37:11.085Z,20.00
2018-03-08T12:39:52.594Z,23.23
2018-03-08T12:42:24.983Z,21.07
2018-03-08T12:45:04.710Z,20.90
2018-03-08T12:47:43.460Z,22.37
2018-03-08T12:51:16.886Z,22.60
2018-03-08T12:53:52.476Z,22.83
2018-03-08T12:56:31.614Z,18.57
2018-03-08T12:59:04.845Z,21.27
2018-03-08T13:01:44.683Z,18.53
2018-03-08T13:04:22.855Z,18.97
2018-03-08T13:07:00.286Z,18.43
2018-03-08T13:09:39.062Z,18.27
2018-03-08T13:12:10.731Z,18.20
2018-03-08T13:14:55.523Z,16.87
2018-03-08T13:17:39.349Z,16.40
2018-03-08T13:20:14.369Z,16.60
2018-03-08T13:22:56.507Z,15.70
2018-03-08T13:28:27.188Z,14.60
2018-03-08T13:30:56.589Z,13.73
2018-03-08T13:33:33.822Z,14.27
2018-03-08T13:36:17.609Z,14.40
2018-03-08T13:38:51.761Z,14.30
2018-03-08T13:41:22.827Z,13.20
2018-03-08T13:43:53.785Z,12.80
2018-03-08T13:46:27.778Z,12.90
2018-03-08T13:48:59.198Z,13.60
2018-03-08T13:51:39.021Z,13.40
2018-03-08T13:54:18.789Z,14.13
2018-03-08T13:57:03.150Z,13.90
2018-03-08T13:59:35.940Z,13.10
2018-03-08T14:02:07.086Z,12.47
2018-03-08T14:04:42.959Z,13.30
2018-03-08T14:07:16.794Z,13.47
2018-03-08T14:09:49.355Z,12.20
2018-03-08T14:12:27.218Z,11.50
2018-03-08T14:15:04.636Z,10.60
2018-03-08T14:20:20.093Z,10.70
2018-03-08T14:22:57.185Z,10.97
2018-03-08T14:25:39.082Z,13.90
2018-03-08T14:28:19.371Z,13.57
2018-03-08T14:30:56.412Z,9.53
2018-03-08T14:33:45.489Z,8.60
2018-03-08T14:36:17.159Z,6.77
2018-03-08T14:41:33.854Z,5.90
2018-03-08T14:44:09.054Z,6.00
2018-03-08T14:46:43.188Z,5.57
2018-03-08T14:49:21.783Z,7.20
2018-03-08T14:51:56.500Z,8.00
2018-03-08T14:54:29.703Z,6.90
2018-03-08T14:57:06.535Z,6.83
2018-03-08T14:59:36.371Z,9.10
2018-03-08T15:02:23.244Z,6.77
2018-03-08T15:05:02.379Z,5.20
2018-03-08T15:07:38.639Z,4.97
2018-03-08T15:10:15.916Z,4.77
2018-03-08T15:12:51.799Z,4.53
2018-03-08T15:15:24.586Z,3.97
2018-03-08T15:21:24.011Z,5.17
2018-03-08T15:23:57.897Z,4.03
2018-03-08T15:30:22.347Z,4.37
2018-03-08T15:33:04.018Z,3.30
2018-03-08T15:38:58.121Z,4.17
2018-03-08T15:41:39.461Z,3.23
2018-03-08T15:44:16.503Z,3.10
2018-03-08T15:46:54.959Z,3.07
2018-03-08T15:49:31.671Z,3.50
2018-03-08T15:52:11.111Z,3.33
2018-03-08T15:55:12.131Z,3.37
2018-03-08T15:57:50.471Z,3.53
2018-03-08T16:00:33.852Z,3.50
2018-03-08T16:03:09.750Z,3.23
2018-03-08T16:05:54.841Z,2.90
2018-03-08T16:08:43.008Z,3.37
2018-03-08T16:11:25.346Z,3.60
2018-03-08T16:14:06.321Z,3.80
2018-03-08T16:19:22.529Z,5.80
2018-03-08T22:08:53.146Z,4.60
2018-03-08T22:14:13.111Z,5.57
2018-03-08T22:16:50.004Z,4.50
2018-03-08T22:19:22.195Z,5.10
2018-03-08T22:21:58.736Z,4.60
2018-03-08T22:24:33.823Z,5.60
2018-03-08T22:27:05.552Z,4.93
2018-03-08T22:29:34.981Z,5.40
2018-03-08T22:32:05.550Z,5.10
2018-03-08T22:34:37.137Z,5.00
2018-03-08T22:37:08.210Z,4.93
2018-03-08T22:39:37.954Z,5.80
2018-03-08T22:42:08.888Z,5.90
2018-03-08T22:44:39.239Z,5.20
2018-03-08T22:47:09.810Z,5.70
2018-03-08T22:49:43.579Z,5.90
2018-03-08T22:52:12.419Z,6.40
2018-03-08T22:54:41.986Z,4.30
2018-03-08T22:57:12.142Z,3.63
2018-03-08T22:59:40.721Z,3.30
2018-03-08T23:02:12.420Z,2.73
2018-03-08T23:04:41.834Z,2.83
2018-03-08T23:07:10.714Z,2.70
2018-03-08T23:09:40.342Z,3.10
2018-03-08T23:12:10.801Z,2.77
2018-03-08T23:14:39.416Z,3.00
2018-03-08T23:17:10.579Z,3.43
2018-03-08T23:19:40.712Z,2.40
2018-03-08T23:22:09.422Z,3.00
2018-03-08T23:24:38.201Z,2.43
2018-03-08T23:27:06.754Z,2.80
2018-03-08T23:29:35.371Z,2.47
2018-03-08T23:32:04.168Z,2.03
2018-03-08T23:34:34.687Z,2.90
2018-03-08T23:37:04.665Z,2.53
2018-03-08T23:39:33.483Z,2.40
2018-03-08T23:42:04.145Z,2.97
2018-03-08T23:44:33.542Z,2.53
2018-03-08T23:47:02.183Z,2.73
2018-03-08T23:49:30.806Z,3.70
2018-03-08T23:51:59.792Z,3.10
2018-03-08T23:54:29.081Z,3.03
2018-03-08T23:56:58.694Z,3.50
2018-03-08T23:59:27.680Z,3.40
